Pagina principale
METAR-TAF:

METAR-TAF

Aeroporti :

Dinard, Francia

latitudine: 48-35N, longitudine: 002-04W, altezza: 65 m

Osservazione

Il bollettino è stato emesso 25 minuti fa, alle 17:00 UTC
Vento 12 kt da nord-est, variando fra nord e est/nord-est
Temperature 25°C
Umidità 36%
Pressione 1016 hPa
Visibilità 10 km o più
nessuna nube inferiore a 1500 m e nessun cumulonembo

METAR: LFRD 311700Z AUTO 04012KT 360V060 CAVOK 25/09 Q1016

Ora: 19:25 (17:25 UTC)


TAF: mancante

Osservazioni e previsioni meteorologiche di più di 4000 aeroporti (messaggi METAR e TAF).

Le stazioni disponibili sono rappresentate dai dischi gialli e rossi sulla carta.

Puntare il mouse per vedere il nome della stazione.

Clicca sopra per visualizzare le osservazioni e previsioni meteorologiche.

Per cambiare la mappa : fare clic sui pulsanti verdi con una croce nera per ingrandire, il pulsante verde con un trattino per diminuire, o sulla freccia verde per le mappe adiacenti.


METAR-TAF: